createdAt,value
2023-02-11T00:01:31.653Z,1.00
2023-02-11T00:03:59.369Z,1.00
2023-02-11T00:06:28.162Z,1.00
2023-02-11T00:08:56.194Z,1.00
2023-02-11T00:11:25.579Z,1.00
2023-02-11T00:13:52.731Z,1.00
2023-02-11T00:16:21.499Z,1.00
2023-02-11T00:18:50.329Z,1.00
2023-02-11T00:21:19.924Z,1.00
2023-02-11T00:23:49.204Z,1.00
2023-02-11T00:26:30.740Z,1.00
2023-02-11T00:28:57.912Z,1.00
2023-02-11T00:31:26.266Z,1.00
2023-02-11T00:33:53.880Z,1.00
2023-02-11T00:36:24.730Z,1.00
2023-02-11T00:38:53.687Z,1.00
2023-02-11T00:41:21.363Z,1.00
2023-02-11T00:43:48.814Z,1.00
2023-02-11T00:46:16.520Z,1.00
2023-02-11T00:48:43.689Z,1.00
2023-02-11T00:51:11.280Z,1.00
2023-02-11T00:53:38.307Z,1.00
2023-02-11T00:56:06.037Z,1.00
2023-02-11T00:58:33.851Z,1.00
2023-02-11T01:01:00.801Z,1.00
2023-02-11T01:03:27.950Z,1.00
2023-02-11T01:05:55.575Z,1.00
2023-02-11T01:08:23.013Z,1.00
2023-02-11T01:11:07.885Z,1.00
2023-02-11T01:13:37.303Z,1.00
2023-02-11T01:16:07.711Z,1.00
2023-02-11T01:18:34.979Z,1.00
2023-02-11T01:21:01.951Z,1.00
2023-02-11T01:23:28.992Z,1.00
2023-02-11T01:25:57.127Z,1.00
2023-02-11T01:28:26.642Z,1.00
2023-02-11T01:30:54.446Z,1.00
2023-02-11T01:33:22.335Z,1.00
2023-02-11T01:35:50.285Z,1.00
2023-02-11T01:38:23.994Z,1.00
2023-02-11T01:41:02.089Z,1.00
2023-02-11T01:43:34.800Z,1.00
2023-02-11T01:46:13.482Z,1.00
2023-02-11T01:48:44.373Z,1.00
2023-02-11T01:51:18.902Z,1.00
2023-02-11T01:54:06.434Z,1.00
2023-02-11T01:56:54.891Z,1.00
2023-02-11T01:59:30.658Z,1.00
2023-02-11T02:02:05.821Z,1.00
2023-02-11T02:04:39.143Z,1.00
2023-02-11T02:07:14.481Z,1.00
2023-02-11T02:09:48.468Z,1.00
2023-02-11T02:12:15.532Z,1.00
2023-02-11T02:14:43.099Z,1.00
2023-02-11T02:17:38.536Z,1.00
2023-02-11T02:20:38.907Z,1.00
2023-02-11T02:23:44.202Z,1.00
2023-02-11T02:26:35.309Z,1.00
2023-02-11T02:29:42.887Z,1.00
2023-02-11T02:32:28.334Z,1.00
2023-02-11T02:35:04.550Z,1.00
2023-02-11T02:37:37.344Z,1.00
2023-02-11T02:40:20.028Z,1.00
2023-02-11T02:42:48.208Z,1.00
2023-02-11T02:45:15.901Z,1.00
2023-02-11T02:47:43.030Z,1.00
2023-02-11T02:50:11.301Z,1.00
2023-02-11T02:52:59.956Z,1.00
2023-02-11T02:55:29.637Z,1.00
2023-02-11T02:57:59.691Z,1.00
2023-02-11T03:00:55.327Z,1.00
2023-02-11T03:04:00.225Z,1.00
2023-02-11T03:06:33.207Z,1.00
2023-02-11T03:09:12.420Z,1.00
2023-02-11T03:11:40.587Z,1.00
2023-02-11T03:14:12.202Z,1.00
2023-02-11T03:16:40.105Z,1.00
2023-02-11T03:19:26.782Z,1.00
2023-02-11T03:21:56.127Z,1.00
2023-02-11T03:24:36.925Z,1.00
2023-02-11T03:27:31.244Z,1.00
2023-02-11T03:30:04.287Z,1.00
2023-02-11T03:32:41.368Z,1.00
2023-02-11T03:35:15.275Z,1.00
2023-02-11T03:38:05.566Z,1.00
2023-02-11T03:40:39.358Z,1.00
2023-02-11T03:43:17.315Z,1.00
2023-02-11T03:45:46.032Z,1.00
2023-02-11T03:48:42.221Z,1.00
2023-02-11T03:51:12.703Z,1.00
2023-02-11T03:53:43.814Z,1.00
2023-02-11T03:56:18.132Z,1.00
2023-02-11T03:58:47.097Z,1.00
2023-02-11T04:01:15.936Z,1.00
2023-02-11T04:03:43.365Z,1.00
2023-02-11T04:06:10.432Z,1.00
2023-02-11T04:08:37.445Z,1.00
2023-02-11T04:11:04.433Z,1.00
2023-02-11T04:13:31.403Z,1.00
2023-02-11T04:15:58.336Z,1.00
2023-02-11T04:18:25.341Z,1.00
2023-02-11T04:20:53.443Z,1.00
2023-02-11T04:23:20.468Z,1.00
2023-02-11T04:25:47.541Z,1.00
2023-02-11T04:28:14.704Z,1.00
2023-02-11T04:30:51.455Z,1.00
2023-02-11T04:33:18.536Z,1.00
2023-02-11T04:35:49.110Z,1.00
2023-02-11T04:38:17.197Z,1.00
2023-02-11T04:40:44.207Z,1.00
2023-02-11T04:43:12.941Z,1.00
2023-02-11T04:45:40.507Z,1.00
2023-02-11T04:48:07.977Z,1.00
2023-02-11T04:50:35.316Z,1.00
2023-02-11T04:53:04.843Z,1.00
2023-02-11T04:55:31.835Z,1.00
2023-02-11T04:57:58.840Z,1.00
2023-02-11T05:00:33.179Z,1.00
2023-02-11T05:03:04.199Z,1.00
2023-02-11T05:05:31.908Z,1.00
2023-02-11T05:07:59.874Z,1.00
2023-02-11T05:10:27.350Z,1.00
2023-02-11T05:12:55.976Z,1.00
2023-02-11T05:15:23.109Z,1.00
2023-02-11T05:17:53.068Z,1.00
2023-02-11T05:20:24.295Z,1.00
2023-02-11T05:22:51.774Z,7.00
2023-02-11T05:25:18.980Z,15.00
2023-02-11T05:27:45.896Z,19.90
2023-02-11T05:30:17.505Z,21.00
2023-02-11T05:32:44.522Z,30.10
2023-02-11T05:35:11.429Z,43.30
2023-02-11T05:37:41.841Z,51.40
2023-02-11T05:40:09.973Z,60.90
2023-02-11T05:42:37.041Z,81.40
2023-02-11T05:45:04.835Z,99.90
2023-02-11T05:47:31.882Z,99.90
2023-02-11T05:49:58.926Z,99.90
2023-02-11T05:52:25.925Z,99.90
2023-02-11T05:54:53.015Z,99.90
2023-02-11T05:57:20.117Z,99.90
2023-02-11T05:59:47.159Z,99.90
2023-02-11T06:02:14.377Z,99.90
2023-02-11T06:04:41.681Z,99.90
2023-02-11T06:07:11.903Z,99.90
2023-02-11T06:09:39.939Z,99.90
2023-02-11T06:12:07.766Z,99.90
2023-02-11T06:14:38.598Z,99.90
2023-02-11T06:17:06.523Z,99.90
2023-02-11T06:19:34.391Z,99.90
2023-02-11T06:22:04.654Z,99.90
2023-02-11T06:24:58.548Z,99.90
2023-02-11T06:27:19.951Z,99.90
2023-02-11T06:29:47.913Z,99.90
2023-02-11T06:32:39.538Z,99.90
2023-02-11T06:35:05.139Z,99.90
2023-02-11T06:37:33.517Z,99.90
2023-02-11T06:40:00.509Z,99.90
2023-02-11T06:42:27.592Z,99.90
2023-02-11T06:44:54.526Z,99.90
2023-02-11T06:47:21.584Z,99.90
2023-02-11T06:49:48.803Z,99.90
2023-02-11T06:52:15.786Z,99.90
2023-02-11T06:54:42.788Z,99.90
2023-02-11T06:57:09.833Z,99.90
2023-02-11T06:59:38.235Z,99.90
2023-02-11T07:02:05.516Z,99.90
2023-02-11T07:04:32.643Z,99.90
2023-02-11T07:06:59.579Z,99.90
2023-02-11T07:09:26.527Z,99.90
2023-02-11T07:11:53.504Z,99.90
2023-02-11T07:14:20.715Z,99.90
2023-02-11T07:16:47.843Z,99.90
2023-02-11T07:19:15.020Z,99.90
2023-02-11T07:21:45.676Z,99.90
2023-02-11T07:24:13.888Z,99.90
2023-02-11T07:26:45.505Z,99.90
2023-02-11T07:29:15.024Z,99.90
2023-02-11T07:31:42.193Z,99.90
2023-02-11T07:34:11.218Z,99.90
2023-02-11T07:36:38.309Z,99.90
2023-02-11T07:39:05.343Z,99.90
2023-02-11T07:41:37.636Z,99.90
2023-02-11T07:44:15.202Z,99.90
2023-02-11T07:46:45.806Z,99.90
2023-02-11T07:49:21.829Z,99.90
2023-02-11T07:51:57.825Z,99.90
2023-02-11T07:54:25.545Z,99.90
2023-02-11T07:56:53.131Z,99.90
2023-02-11T07:59:20.580Z,99.90
2023-02-11T08:01:47.921Z,99.90
2023-02-11T08:04:18.496Z,99.90
2023-02-11T08:06:45.627Z,99.90
2023-02-11T08:09:16.946Z,99.90
2023-02-11T08:11:46.163Z,99.90
2023-02-11T08:14:14.563Z,99.90
2023-02-11T08:16:42.107Z,99.90
2023-02-11T08:19:13.788Z,99.90
2023-02-11T08:21:41.432Z,99.90
2023-02-11T08:24:09.165Z,99.90
2023-02-11T08:26:36.689Z,99.90
2023-02-11T08:29:09.654Z,99.90
2023-02-11T08:31:39.853Z,99.90
2023-02-11T08:34:07.131Z,99.90
2023-02-11T08:36:36.260Z,99.90
2023-02-11T08:39:18.144Z,99.90
2023-02-11T08:41:51.290Z,99.90
2023-02-11T08:44:20.427Z,99.90
2023-02-11T08:46:49.225Z,99.90
2023-02-11T08:49:16.846Z,99.90
2023-02-11T08:51:44.832Z,99.90
2023-02-11T08:54:15.787Z,99.90
2023-02-11T08:56:44.439Z,99.90
2023-02-11T08:59:18.553Z,99.90
2023-02-11T09:02:06.458Z,99.90
2023-02-11T09:04:33.526Z,99.90
2023-02-11T09:07:00.540Z,99.90
2023-02-11T09:09:27.535Z,99.90
2023-02-11T09:11:57.281Z,99.90
2023-02-11T09:14:25.331Z,99.90
2023-02-11T09:16:53.236Z,99.90
2023-02-11T09:19:21.332Z,99.90
2023-02-11T09:21:48.476Z,99.90
2023-02-11T09:24:15.792Z,99.90
2023-02-11T09:26:43.648Z,99.90
2023-02-11T09:29:10.773Z,99.90
2023-02-11T09:31:37.891Z,99.90
2023-02-11T09:34:06.448Z,99.90
2023-02-11T09:36:38.825Z,99.90
2023-02-11T09:39:09.001Z,99.90
2023-02-11T09:41:55.723Z,99.90
2023-02-11T09:44:26.340Z,99.90
2023-02-11T09:47:04.589Z,99.90
2023-02-11T09:49:44.553Z,99.90
2023-02-11T09:52:26.595Z,99.90
2023-02-11T09:54:59.477Z,99.90
2023-02-11T09:57:36.111Z,99.90
2023-02-11T10:00:22.408Z,99.90
2023-02-11T10:03:11.628Z,99.90
2023-02-11T10:05:50.585Z,99.90
2023-02-11T10:08:30.065Z,99.90
2023-02-11T10:11:32.492Z,99.90
2023-02-11T10:14:18.452Z,99.90
2023-02-11T10:16:51.304Z,99.90
2023-02-11T10:19:27.178Z,99.90
2023-02-11T10:22:02.279Z,99.90
2023-02-11T10:24:29.558Z,99.90
2023-02-11T10:26:56.550Z,99.90
2023-02-11T10:29:44.250Z,99.90
2023-02-11T10:32:31.374Z,99.90
2023-02-11T10:35:02.914Z,99.90
2023-02-11T10:37:30.826Z,99.90
2023-02-11T10:39:57.913Z,99.90
2023-02-11T10:42:25.930Z,99.90
2023-02-11T10:45:00.344Z,99.90
2023-02-11T10:47:34.540Z,99.90
2023-02-11T10:50:03.737Z,99.90
2023-02-11T10:52:31.826Z,99.90
2023-02-11T10:55:01.121Z,99.90
2023-02-11T10:57:37.374Z,99.90
2023-02-11T11:00:32.382Z,99.90
2023-02-11T11:03:01.193Z,99.90
2023-02-11T11:05:53.188Z,99.90
2023-02-11T11:08:20.491Z,99.90
2023-02-11T11:11:06.562Z,99.90
2023-02-11T11:13:43.409Z,99.90
2023-02-11T11:16:13.467Z,99.90
2023-02-11T11:18:49.171Z,99.90
2023-02-11T11:21:26.725Z,99.90
2023-02-11T11:24:00.141Z,99.90
2023-02-11T11:26:41.696Z,99.90
2023-02-11T11:29:16.814Z,99.90
2023-02-11T11:32:13.023Z,99.90
2023-02-11T11:34:48.728Z,99.90
2023-02-11T11:37:34.339Z,97.00
2023-02-11T11:40:09.126Z,84.80
2023-02-11T11:42:38.697Z,78.20
2023-02-11T11:45:20.857Z,59.50
2023-02-11T11:47:54.549Z,48.40
2023-02-11T11:50:54.968Z,43.00
2023-02-11T11:53:48.295Z,41.30
2023-02-11T11:56:42.500Z,42.70
2023-02-11T11:59:16.569Z,31.30
2023-02-11T12:02:08.670Z,33.00
2023-02-11T12:05:23.442Z,27.20
2023-02-11T12:08:01.100Z,26.10
2023-02-11T12:10:42.458Z,29.20
2023-02-11T12:13:23.362Z,29.80
2023-02-11T12:16:15.905Z,52.60
2023-02-11T12:19:01.452Z,30.50
2023-02-11T12:21:42.513Z,29.00
2023-02-11T12:24:29.365Z,23.10
2023-02-11T12:27:20.799Z,12.10
2023-02-11T12:30:08.987Z,2.10
2023-02-11T12:33:05.247Z,1.00
2023-02-11T12:35:45.811Z,1.00
2023-02-11T12:38:27.483Z,1.00
2023-02-11T12:41:49.246Z,1.00
2023-02-11T12:44:34.330Z,1.00
2023-02-11T12:47:01.307Z,1.00
2023-02-11T12:50:02.606Z,1.00
2023-02-11T12:52:48.449Z,1.00
2023-02-11T12:55:23.008Z,1.00
2023-02-11T12:57:52.502Z,1.00
2023-02-11T13:00:22.561Z,1.00
2023-02-11T13:03:11.115Z,1.00
2023-02-11T13:05:46.922Z,1.00
2023-02-11T13:08:22.850Z,1.00
2023-02-11T13:10:54.802Z,1.00
2023-02-11T13:13:26.905Z,1.00
2023-02-11T13:16:17.269Z,1.00
2023-02-11T13:19:15.510Z,1.00
2023-02-11T13:22:00.930Z,1.00
2023-02-11T13:25:01.463Z,1.00
2023-02-11T13:27:58.499Z,1.00
2023-02-11T13:30:32.681Z,1.00
2023-02-11T13:33:01.051Z,1.00
2023-02-11T13:35:36.656Z,1.00
2023-02-11T13:38:06.706Z,1.00
2023-02-11T13:40:36.997Z,1.00
2023-02-11T13:43:06.947Z,1.00
2023-02-11T13:45:47.224Z,1.00
2023-02-11T13:48:36.520Z,1.00
2023-02-11T13:51:07.801Z,1.00
2023-02-11T13:53:54.786Z,1.00
2023-02-11T13:56:32.429Z,1.00
2023-02-11T13:59:02.358Z,1.00
2023-02-11T14:02:20.656Z,1.00
2023-02-11T14:05:21.371Z,1.00
2023-02-11T14:08:28.916Z,1.00
2023-02-11T14:11:14.422Z,1.00
2023-02-11T14:13:47.453Z,1.00
2023-02-11T14:16:31.672Z,1.00
2023-02-11T14:19:03.811Z,1.00
2023-02-11T14:21:35.855Z,1.00
2023-02-11T14:24:04.909Z,1.00
2023-02-11T14:26:54.023Z,1.00
2023-02-11T14:29:40.342Z,1.00
2023-02-11T14:32:52.070Z,1.00
2023-02-11T14:35:43.865Z,1.00
2023-02-11T14:38:43.974Z,1.00
2023-02-11T14:41:24.378Z,1.00
2023-02-11T14:44:23.009Z,1.00
2023-02-11T14:46:53.432Z,1.00
2023-02-11T14:49:33.919Z,1.00
2023-02-11T14:52:17.244Z,1.00
2023-02-11T14:54:48.586Z,1.00
2023-02-11T14:57:18.138Z,1.00
2023-02-11T15:00:03.739Z,1.00
2023-02-11T15:02:37.418Z,1.00
2023-02-11T15:05:16.093Z,1.00
2023-02-11T15:07:58.414Z,1.00
2023-02-11T15:10:36.852Z,1.00
2023-02-11T15:13:05.185Z,1.00
2023-02-11T15:15:33.138Z,1.00
2023-02-11T15:18:03.453Z,1.00
2023-02-11T15:20:32.658Z,1.00
2023-02-11T15:23:03.470Z,1.00
2023-02-11T15:25:33.727Z,1.00
2023-02-11T15:28:01.583Z,1.00
2023-02-11T15:30:36.345Z,1.00
2023-02-11T15:33:06.890Z,1.00
2023-02-11T15:35:41.023Z,1.00
2023-02-11T15:38:11.138Z,1.00
2023-02-11T15:40:38.144Z,1.00
2023-02-11T15:43:06.426Z,1.00
2023-02-11T15:45:40.492Z,1.00
2023-02-11T15:48:13.384Z,1.00
2023-02-11T15:50:42.563Z,1.00
2023-02-11T15:53:21.177Z,1.00
2023-02-11T15:55:52.519Z,1.00
2023-02-11T15:58:20.142Z,1.00
2023-02-11T16:00:50.207Z,1.00
2023-02-11T16:03:28.724Z,1.00
2023-02-11T16:05:56.553Z,1.00
2023-02-11T16:08:29.406Z,1.00
2023-02-11T16:10:59.506Z,1.00
2023-02-11T16:13:28.360Z,1.00
2023-02-11T16:16:04.098Z,1.00
2023-02-11T16:18:52.079Z,1.00
2023-02-11T16:21:39.519Z,1.00
2023-02-11T16:24:24.693Z,1.00
2023-02-11T16:26:54.685Z,1.90
2023-02-11T16:29:36.498Z,6.80
2023-02-11T16:32:30.332Z,10.00
2023-02-11T16:35:00.736Z,16.20
2023-02-11T16:37:31.619Z,22.00
2023-02-11T16:39:58.605Z,22.00
2023-02-11T16:42:25.608Z,23.60
2023-02-11T16:44:52.593Z,25.90
2023-02-11T16:47:28.223Z,25.50
2023-02-11T16:49:56.688Z,28.60
2023-02-11T16:52:24.343Z,30.40
2023-02-11T16:54:51.445Z,30.00
2023-02-11T16:57:23.832Z,29.90
2023-02-11T16:59:51.433Z,33.30
2023-02-11T17:02:34.523Z,32.60
2023-02-11T17:05:04.853Z,36.80
2023-02-11T17:07:32.223Z,35.50
2023-02-11T17:09:59.512Z,36.80
2023-02-11T17:12:27.122Z,36.90
2023-02-11T17:14:54.229Z,35.20
2023-02-11T17:17:23.574Z,32.70
2023-02-11T17:19:51.343Z,31.20
2023-02-11T17:22:18.992Z,31.00
2023-02-11T17:24:45.936Z,28.60
2023-02-11T17:27:13.339Z,27.80
2023-02-11T17:29:40.381Z,28.30
2023-02-11T17:32:07.607Z,26.60
2023-02-11T17:34:34.687Z,28.10
2023-02-11T17:37:07.660Z,29.50
2023-02-11T17:39:35.505Z,33.70
2023-02-11T17:42:02.960Z,39.40
2023-02-11T17:44:30.077Z,41.70
2023-02-11T17:46:56.969Z,46.50
2023-02-11T17:49:24.335Z,49.00
2023-02-11T17:51:51.432Z,53.10
2023-02-11T17:54:19.798Z,53.70
2023-02-11T17:56:50.599Z,60.50
2023-02-11T17:59:17.962Z,66.10
2023-02-11T18:01:44.925Z,68.50
2023-02-11T18:04:18.123Z,71.40
2023-02-11T18:06:45.830Z,72.30
2023-02-11T18:09:13.391Z,74.20
2023-02-11T18:11:41.018Z,77.20
2023-02-11T18:14:08.607Z,80.70
2023-02-11T18:16:38.734Z,81.00
2023-02-11T18:19:07.545Z,86.40
2023-02-11T18:21:34.963Z,92.80
2023-02-11T18:24:06.391Z,93.10
2023-02-11T18:26:35.635Z,94.80
2023-02-11T18:29:04.029Z,98.20
2023-02-11T18:31:31.549Z,99.90
2023-02-11T18:33:58.649Z,99.90
2023-02-11T18:36:25.698Z,99.90
2023-02-11T18:38:54.348Z,99.90
2023-02-11T18:41:21.734Z,99.90
2023-02-11T18:43:48.869Z,99.90
2023-02-11T18:46:16.465Z,99.90
2023-02-11T18:48:45.081Z,99.90
2023-02-11T18:51:18.721Z,99.90
2023-02-11T18:53:45.915Z,99.90
2023-02-11T18:56:18.730Z,99.90
2023-02-11T18:58:46.067Z,99.90
2023-02-11T19:01:24.378Z,99.90
2023-02-11T19:03:52.279Z,99.90
2023-02-11T19:06:25.623Z,99.90
2023-02-11T19:08:56.334Z,99.90
2023-02-11T19:11:44.808Z,99.90
2023-02-11T19:14:12.546Z,99.90
2023-02-11T19:16:41.583Z,99.90
2023-02-11T19:19:08.923Z,99.90
2023-02-11T19:21:36.560Z,99.90
2023-02-11T19:24:08.157Z,99.90
2023-02-11T19:26:35.784Z,99.90
2023-02-11T19:29:03.942Z,99.90
2023-02-11T19:31:32.366Z,99.90
2023-02-11T19:34:00.112Z,99.90
2023-02-11T19:36:27.552Z,99.90
2023-02-11T19:38:54.824Z,99.90
2023-02-11T19:41:23.169Z,99.90
2023-02-11T19:43:54.062Z,99.90
2023-02-11T19:46:21.498Z,99.90
2023-02-11T19:48:49.013Z,99.90
2023-02-11T19:51:17.019Z,99.90
2023-02-11T19:53:45.273Z,99.90
2023-02-11T19:56:13.336Z,99.90
2023-02-11T19:58:40.997Z,99.90
2023-02-11T20:01:09.189Z,99.90
2023-02-11T20:03:36.664Z,99.90
2023-02-11T20:06:08.108Z,99.90
2023-02-11T20:08:35.418Z,99.90
2023-02-11T20:11:10.801Z,99.90
2023-02-11T20:13:38.626Z,99.90
2023-02-11T20:16:12.430Z,99.90
2023-02-11T20:18:40.142Z,99.90
2023-02-11T20:21:12.821Z,99.90
2023-02-11T20:23:40.747Z,99.90
2023-02-11T20:26:24.937Z,99.90
2023-02-11T20:28:53.908Z,99.90
2023-02-11T20:31:21.838Z,99.90
2023-02-11T20:33:49.326Z,99.90
2023-02-11T20:36:18.000Z,99.90
2023-02-11T20:38:45.638Z,99.90
2023-02-11T20:41:17.372Z,99.90
2023-02-11T20:43:46.814Z,99.90
2023-02-11T20:46:15.819Z,99.90
2023-02-11T20:48:43.578Z,99.90
2023-02-11T20:51:13.083Z,99.90
2023-02-11T20:53:50.041Z,99.90
2023-02-11T20:56:28.976Z,99.90
2023-02-11T20:58:58.574Z,99.90
2023-02-11T21:01:28.396Z,99.90
2023-02-11T21:03:59.741Z,99.90
2023-02-11T21:06:30.871Z,99.90
2023-02-11T21:08:57.855Z,99.90
2023-02-11T21:11:24.876Z,99.90
2023-02-11T21:13:51.883Z,99.90
2023-02-11T21:16:20.884Z,99.90
2023-02-11T21:18:49.298Z,99.90
2023-02-11T21:21:17.564Z,99.90
2023-02-11T21:23:45.031Z,99.90
2023-02-11T21:26:12.293Z,99.90
2023-02-11T21:28:41.037Z,99.90
2023-02-11T21:31:08.730Z,99.90
2023-02-11T21:33:35.815Z,99.90
2023-02-11T21:36:04.593Z,99.90
2023-02-11T21:38:31.660Z,99.90
2023-02-11T21:41:04.395Z,99.90
2023-02-11T21:43:31.634Z,99.90
2023-02-11T21:45:59.030Z,99.90
2023-02-11T21:48:26.768Z,99.90
2023-02-11T21:50:54.169Z,99.90
2023-02-11T21:53:21.079Z,99.90
2023-02-11T21:55:49.338Z,99.90
2023-02-11T21:58:16.339Z,99.90
2023-02-11T22:00:43.409Z,99.90
2023-02-11T22:03:11.009Z,99.90
2023-02-11T22:05:41.319Z,99.90
2023-02-11T22:08:08.356Z,99.90
2023-02-11T22:10:35.300Z,99.90
2023-02-11T22:13:02.465Z,99.90
2023-02-11T22:15:29.507Z,99.90
2023-02-11T22:17:56.659Z,99.90
2023-02-11T22:20:23.651Z,99.90
2023-02-11T22:22:53.303Z,99.90
2023-02-11T22:25:20.371Z,99.90
2023-02-11T22:27:47.360Z,99.90
2023-02-11T22:30:14.393Z,99.90
2023-02-11T22:32:42.641Z,99.90
2023-02-11T22:35:09.614Z,99.90
2023-02-11T22:37:36.592Z,99.90
2023-02-11T22:40:03.751Z,99.90
2023-02-11T22:42:30.799Z,99.90
2023-02-11T22:44:57.848Z,99.90
2023-02-11T22:47:24.891Z,99.90
2023-02-11T22:49:51.918Z,99.90
2023-02-11T22:52:19.080Z,99.90
2023-02-11T22:54:46.231Z,99.90
2023-02-11T22:57:13.295Z,99.90
2023-02-11T22:59:40.201Z,99.90
2023-02-11T23:02:07.229Z,1.00
2023-02-11T23:04:34.332Z,1.00
2023-02-11T23:07:02.983Z,1.00
2023-02-11T23:09:29.968Z,1.00
2023-02-11T23:11:57.904Z,1.00
2023-02-11T23:14:25.198Z,1.00
2023-02-11T23:16:52.314Z,1.00
2023-02-11T23:19:20.183Z,1.00
2023-02-11T23:21:51.323Z,1.00
2023-02-11T23:24:18.314Z,1.00
2023-02-11T23:26:45.450Z,1.00
2023-02-11T23:29:12.923Z,1.00
2023-02-11T23:31:43.443Z,1.00
2023-02-11T23:34:10.896Z,1.00
2023-02-11T23:36:38.063Z,1.00
2023-02-11T23:39:05.464Z,1.00
2023-02-11T23:41:32.520Z,1.00
2023-02-11T23:43:59.536Z,1.00
2023-02-11T23:46:27.498Z,1.00
2023-02-11T23:48:54.971Z,1.00
2023-02-11T23:51:22.829Z,1.00
2023-02-11T23:53:50.014Z,1.00
2023-02-11T23:56:20.463Z,1.00
2023-02-11T23:58:52.304Z,1.00
